• Join FlightAware (Why Join?)
  • Login
  • US Flag 
08:05AM EDT


 

Airport Tracker/Info


-or-


 

Live Flight TrackerFlight Track Log ✈ UAL6148 ✈ 18-Apr-2013 ✈ KORD - KLNK

Flight Track Log - Related Links

Times and Time Zones

All times are in EDT time to prevent confusion due to time zone crossing. See the UAL6148 flight status page for this flight to view local times or setup timezone preferences in your user account.

Time Position Orientation Groundspeed Altitude Reporting Facility
EDT Latitude Longitude Course Direction KTS MPH feet Rate Location/Type
08:30PM 41.9667 -87.9333 246° West 162 186 2,300  Level Chicago TRACON
08:31PM 41.9500 -87.9833 246° West 192 221 4,400 960 Climbing Chicago TRACON
08:33PM 41.9061 -88.1394 249° West 228 262 5,000 360 Climbing Chicago Center
08:34PM 41.9258 -88.2331 286° West 253 291 5,600 1,740 Climbing Chicago Center
08:35PM 41.9478 -88.3269 287° West 260 299 8,600 2,460 Climbing Chicago Center
08:36PM 41.9467 -88.4236 269° West 262 302 10,700 1,620 Climbing Chicago Center
08:37PM 41.9331 -88.5325 260° West 297 342 12,000 1,740 Climbing Chicago Center
08:38PM 41.9117 -88.6739 259° West 322 371 14,300 2,400 Climbing Chicago Center
08:39PM 41.8997 -88.7872 262° West 312 359 17,000 2,760 Climbing Chicago Center
08:40PM 41.8972 -88.8939 268° West 292 336 20,000 2,580 Climbing Chicago Center
08:41PM 41.9011 -88.9978 273° West 282 325 22,400 1,980 Climbing Chicago Center
08:42PM 41.9081 -89.0994 275° West 278 320 24,200 1,560 Climbing Chicago Center
08:43PM 41.9072 -89.2025 269° West 280 322 25,700 1,500 Climbing Chicago Center
08:45PM 41.8928 -89.3253 261° West 280 322 27,300 1,500 Climbing Chicago Center
08:46PM 41.8828 -89.4297 263° West 283 326 28,900 1,500 Climbing Chicago Center
08:47PM 41.8714 -89.5344 262° West 285 328 30,500 1,320 Climbing Chicago Center
08:48PM 41.8603 -89.6383 262° West 283 326 31,700 720 Climbing Chicago Center
08:49PM 41.8478 -89.7492 261° West 298 343 32,000 120 Climbing Chicago Center
08:50PM 41.8342 -89.8722 262° West 332 382 32,000  Level Chicago Center
08:51PM 41.8208 -90.0100 263° West 365 420 32,000  Level Chicago Center
08:52PM 41.8000 -90.1822 261° West 386 444 32,000  Level Chicago Center
08:53PM 41.7856 -90.3117 262° West 395 455 32,000  Level Chicago Center
08:54PM 41.7694 -90.4483 261° West 376 433 32,000  Level Chicago Center
08:55PM 41.7531 -90.5833 261° West 371 427 32,000  Level Chicago Center
08:56PM 41.7367 -90.7297 262° West 370 426 32,000  Level Chicago Center
08:57PM 41.7011 -90.8553 249° West 361 415 32,000  Level Chicago Center
08:58PM 41.6589 -91.0036 249° West 358 412 32,000  Level Chicago Center
08:59PM 41.6228 -91.1292 249° West 362 417 32,000  Level Chicago Center
09:00PM 41.5872 -91.2522 249° West 359 413 32,000  Level Chicago Center
09:01PM 41.5539 -91.3800 251° West 364 419 32,000  Level Chicago Center
09:02PM 41.5378 -91.5203 261° West 383 441 32,000  Level Chicago Center
09:03PM 41.5231 -91.6592 262° West 382 440 32,000  Level Chicago Center
09:04PM 41.5039 -91.8278 261° West 384 442 32,000  Level Chicago Center
09:05PM 41.4886 -91.9650 262° West 379 436 32,000  Level Chicago Center
09:06PM 41.4736 -92.1039 262° West 378 435 32,000  Level Chicago Center
09:07PM 41.4578 -92.2417 261° West 380 437 32,000  Level Chicago Center
09:08PM 41.4414 -92.3794 261° West 378 435 32,000  Level Chicago Center
09:09PM 41.4258 -92.5217 262° West 379 436 32,000  Level Chicago Center
09:10PM 41.4100 -92.6581 261° West 377 434 32,000  Level Chicago Center
09:11PM 41.4031 -92.7142 261° West 377 434 32,000  Level Minneapolis Center
09:12PM 41.3833 -92.8767 261° West 375 432 32,000  Level Minneapolis Center
09:13PM 41.3672 -93.0147 261° West 378 435 32,000  Level Minneapolis Center
09:14PM 41.3500 -93.1508 260° West 379 436 32,000  Level Minneapolis Center
09:15PM 41.3325 -93.2897 261° West 381 438 32,000  Level Minneapolis Center
09:16PM 41.3150 -93.4286 261° West 383 441 32,000  Level Minneapolis Center
09:17PM 41.2942 -93.5972 261° West 384 442 32,000  Level Minneapolis Center
09:18PM 41.2783 -93.7344 261° West 385 443 32,000  Level Minneapolis Center
09:19PM 41.2611 -93.8739 261° West 387 445 32,000  Level Minneapolis Center
09:20PM 41.2408 -94.0136 259° West 388 447 32,000  Level Minneapolis Center
09:21PM 41.2231 -94.1531 260° West 388 447 32,000  Level Minneapolis Center
09:22PM 41.2056 -94.2992 261° West 384 442 32,000  Level Minneapolis Center
09:23PM 41.1861 -94.4425 260° West 390 449 32,000 -600 Level Minneapolis Center
09:24PM 41.1631 -94.6119 260° West 390 449 30,800 -1,260 Descending Minneapolis Center
09:25PM 41.1447 -94.7461 260° West 376 433 29,400 -1,440 Descending Minneapolis Center
09:26PM 41.1269 -94.8817 260° West 373 429 27,900 -1,500 Descending Minneapolis Center
09:27PM 41.1072 -95.0231 260° West 383 441 26,300 -1,800 Descending Minneapolis Center
09:28PM 41.0869 -95.1644 259° West 388 447 24,300 -1,980 Descending Minneapolis Center
09:29PM 41.0669 -95.3067 259° West 390 449 22,300 -2,220 Descending Minneapolis Center
09:30PM 41.0500 -95.4583 262° West 388 447 19,900 -2,220 Descending Minneapolis Center
09:31PM 41.0275 -95.5792 256° West 372 428 17,800 -2,160 Descending Minneapolis Center
09:32PM 41.0053 -95.7328 259° West 354 407 15,300 -2,460 Descending Minneapolis Center
09:33PM 40.9872 -95.8561 259° West 345 397 12,800 -2,160 Descending Minneapolis Center
09:34PM 40.9697 -95.9750 259° West 333 383 10,900 -1,140 Descending Minneapolis Center
09:35PM 40.9403 -96.0772 249° West 298 343 10,500 -1,200 Descending Minneapolis Center
09:36PM 40.9047 -96.1631 241° Southwest 265 305 8,600 -1,860 Descending Minneapolis Center
09:37PM 40.8725 -96.2492 244° Southwest 256 295 7,000 -1,620 Descending Minneapolis Center
09:38PM 40.8311 -96.3228 233° Southwest 250 288 5,400 -1,560 Descending Minneapolis Center
09:39PM 40.7875 -96.3936 231° Southwest 251 289 3,900 -780 Descending Minneapolis Center
09:40PM 40.7436 -96.4614 229° Southwest 234 269 3,900 -540 Level Minneapolis Center
09:41PM 40.7056 -96.5233 231° Southwest 221 254 2,900 -480 Descending Minneapolis Center
09:42PM 40.6867 -96.5911 250° West 165 190 2,900  Level Minneapolis Center
09:44PM 40.7328 -96.6464 318° Northwest 184 212 3,000  Climbing Minneapolis Center
09:45PM 40.7586 -96.6744 321° Northwest 159 183 3,000 -300 Level Minneapolis Center
09:46PM 40.7850 -96.6964 328° Northwest 106 122 2,500 -480 Descending Minneapolis Center
09:46PM 40.8033 -96.7122 327° Northwest 150 173 2,400 -540 Descending Minneapolis Center
09:47PM 40.8264 -96.7331 326° Northwest 127 146 1,800 -600 Descending Minneapolis Center